createdAt,value
2019-05-21T00:03:52.758Z,66.44
2019-05-21T00:08:54.847Z,66.16
2019-05-21T00:13:56.944Z,66.37
2019-05-21T00:18:59.035Z,66.43
2019-05-21T00:24:01.204Z,66.30
2019-05-21T00:29:40.064Z,66.62
2019-05-21T00:35:19.311Z,66.57
2019-05-21T00:40:58.360Z,66.62
2019-05-21T00:46:00.453Z,66.50
2019-05-21T00:51:02.537Z,66.43
2019-05-21T00:56:04.625Z,66.43
2019-05-21T01:01:06.712Z,66.56
2019-05-21T01:06:08.755Z,66.75
2019-05-21T01:11:10.828Z,67.07
2019-05-21T01:16:12.927Z,67.46
2019-05-21T01:21:15.009Z,67.64
2019-05-21T01:26:17.113Z,67.38
2019-05-21T01:31:19.289Z,67.37
2019-05-21T01:36:21.443Z,67.27
2019-05-21T01:41:23.542Z,67.76
2019-05-21T01:46:28.001Z,67.76
2019-05-21T01:51:30.063Z,67.41
2019-05-21T01:56:32.186Z,67.20
2019-05-21T02:01:34.256Z,67.10
2019-05-21T02:06:36.371Z,67.18
2019-05-21T02:11:38.516Z,67.17
2019-05-21T02:16:40.590Z,67.55
2019-05-21T02:21:42.676Z,67.69
2019-05-21T02:26:44.758Z,67.51
2019-05-21T02:31:46.829Z,67.93
2019-05-21T02:36:48.982Z,67.86
2019-05-21T02:41:51.039Z,68.06
2019-05-21T02:46:53.121Z,67.76
2019-05-21T02:51:55.239Z,67.54
2019-05-21T02:56:57.430Z,67.60
2019-05-21T03:02:05.769Z,67.15
2019-05-21T03:07:19.669Z,66.89
2019-05-21T03:12:21.784Z,66.80
2019-05-21T03:17:23.884Z,66.92
2019-05-21T03:22:25.959Z,66.94
2019-05-21T03:27:28.079Z,66.73
2019-05-21T03:32:30.934Z,66.54
2019-05-21T03:37:33.040Z,66.55
2019-05-21T03:42:35.131Z,66.78
2019-05-21T03:47:39.314Z,66.75
2019-05-21T03:52:41.421Z,66.74
2019-05-21T03:57:43.472Z,66.71
2019-05-21T04:02:45.585Z,66.59
2019-05-21T04:07:47.697Z,66.42
2019-05-21T04:13:05.922Z,66.56
2019-05-21T04:18:15.341Z,66.22
2019-05-21T04:23:17.434Z,66.31
2019-05-21T04:28:19.497Z,66.54
2019-05-21T04:33:21.570Z,66.33
2019-05-21T04:38:23.867Z,66.22
2019-05-21T04:43:26.106Z,66.01
2019-05-21T04:48:28.338Z,65.71
2019-05-21T04:53:30.381Z,65.36
2019-05-21T04:58:32.517Z,65.31
2019-05-21T05:03:34.704Z,64.80
2019-05-21T05:08:36.761Z,64.37
2019-05-21T05:13:38.833Z,62.98
2019-05-21T05:18:41.038Z,61.41
2019-05-21T05:23:43.138Z,57.32
2019-05-21T05:28:45.326Z,54.14
2019-05-21T05:33:47.437Z,49.75
2019-05-21T05:38:51.917Z,49.51
2019-05-21T05:43:53.978Z,49.64
2019-05-21T05:49:02.162Z,47.56
2019-05-21T05:54:07.534Z,46.62
2019-05-21T05:59:09.782Z,49.19
2019-05-21T06:04:11.938Z,44.65
2019-05-21T06:09:14.058Z,45.26
2019-05-21T06:14:16.112Z,41.27
2019-05-21T06:19:18.521Z,38.76
2019-05-21T06:24:20.710Z,37.03
2019-05-21T06:29:22.767Z,35.47
2019-05-21T06:34:27.003Z,34.44
2019-05-21T06:39:29.043Z,32.84
2019-05-21T06:44:31.113Z,31.82
2019-05-21T06:49:34.168Z,31.14
2019-05-21T06:54:36.237Z,30.72
2019-05-21T06:59:38.363Z,33.59
2019-05-21T07:04:40.471Z,37.08
2019-05-21T07:09:42.622Z,37.54
2019-05-21T07:14:44.699Z,38.93
2019-05-21T07:19:46.897Z,39.06
2019-05-21T07:24:49.006Z,40.36
2019-05-21T07:29:51.088Z,40.17
2019-05-21T07:34:53.215Z,38.13
2019-05-21T07:39:55.314Z,39.71
2019-05-21T07:44:57.529Z,41.24
2019-05-21T07:49:59.705Z,40.95
2019-05-21T07:55:01.819Z,41.46
2019-05-21T08:00:05.481Z,42.06
2019-05-21T08:05:07.776Z,41.81
2019-05-21T08:10:10.270Z,42.36
2019-05-21T08:15:12.773Z,42.22
2019-05-21T08:20:16.890Z,42.51
2019-05-21T08:25:21.045Z,43.46
2019-05-21T08:30:23.103Z,43.51
2019-05-21T08:35:27.416Z,44.45
2019-05-21T08:40:29.746Z,45.69
2019-05-21T08:45:31.932Z,44.85
2019-05-21T08:50:34.231Z,45.87
2019-05-21T08:55:36.384Z,46.42
2019-05-21T09:00:38.619Z,45.87
2019-05-21T09:05:40.712Z,46.14
2019-05-21T09:10:42.768Z,45.00
2019-05-21T09:15:45.163Z,45.81
2019-05-21T09:20:47.296Z,45.48
2019-05-21T09:25:49.789Z,45.65
2019-05-21T09:30:52.308Z,45.52
2019-05-21T09:35:54.451Z,47.15
2019-05-21T09:40:56.605Z,45.44
2019-05-21T09:45:58.671Z,43.88
2019-05-21T09:51:00.970Z,44.44
2019-05-21T09:56:23.202Z,43.95
2019-05-21T10:01:31.855Z,44.50
2019-05-21T10:06:33.938Z,44.15
2019-05-21T10:11:36.037Z,43.50
2019-05-21T10:16:38.121Z,44.05
2019-05-21T10:21:40.236Z,43.83
2019-05-21T10:26:42.490Z,43.40
2019-05-21T10:31:44.694Z,44.49
2019-05-21T10:36:46.821Z,45.12
2019-05-21T10:41:49.009Z,45.19
2019-05-21T10:46:51.300Z,44.90
2019-05-21T10:51:53.446Z,44.86
2019-05-21T10:56:55.596Z,44.39
2019-05-21T11:02:17.505Z,44.74
2019-05-21T11:07:21.983Z,45.15
2019-05-21T11:12:24.557Z,44.50
2019-05-21T11:17:26.730Z,43.34
2019-05-21T11:22:29.052Z,43.43
2019-05-21T11:27:31.444Z,43.43
2019-05-21T11:32:33.733Z,43.57
2019-05-21T11:37:35.988Z,43.62
2019-05-21T11:42:38.127Z,42.88
2019-05-21T11:47:40.795Z,42.24
2019-05-21T11:52:42.896Z,41.12
2019-05-21T11:57:45.145Z,41.78
2019-05-21T12:02:47.210Z,40.00
2019-05-21T12:07:49.310Z,40.00
2019-05-21T12:12:51.478Z,39.38
2019-05-21T12:17:53.671Z,38.98
2019-05-21T12:22:55.858Z,39.52
2019-05-21T12:27:58.513Z,38.80
2019-05-21T12:33:00.581Z,37.99
2019-05-21T12:38:03.120Z,38.67
2019-05-21T12:43:06.809Z,38.16
2019-05-21T12:48:11.021Z,37.32
2019-05-21T12:53:16.423Z,37.67
2019-05-21T12:58:20.170Z,37.09
2019-05-21T13:03:22.323Z,37.02
2019-05-21T13:08:24.795Z,39.44
2019-05-21T13:13:26.898Z,41.06
2019-05-21T13:18:28.952Z,42.79
2019-05-21T13:23:33.366Z,43.04
2019-05-21T13:28:35.549Z,42.86
2019-05-21T13:33:37.669Z,42.10
2019-05-21T13:38:39.741Z,42.12
2019-05-21T13:43:44.132Z,42.84
2019-05-21T13:48:47.020Z,43.63
2019-05-21T13:53:49.451Z,43.38
2019-05-21T13:58:51.573Z,43.95
2019-05-21T14:03:53.789Z,43.59
2019-05-21T14:08:55.919Z,43.46
2019-05-21T14:13:58.015Z,43.13
2019-05-21T14:19:00.179Z,43.61
2019-05-21T14:24:05.277Z,43.89
2019-05-21T14:29:07.422Z,44.46
2019-05-21T14:34:09.562Z,44.15
2019-05-21T14:39:14.608Z,43.79
2019-05-21T14:44:16.802Z,44.11
2019-05-21T14:49:22.736Z,43.50
2019-05-21T14:54:26.987Z,45.08
2019-05-21T14:59:29.044Z,45.76
2019-05-21T15:04:31.377Z,45.82
2019-05-21T15:09:34.073Z,46.47
2019-05-21T15:14:38.732Z,45.83
2019-05-21T15:19:44.484Z,45.96
2019-05-21T15:24:46.589Z,46.16
2019-05-21T15:29:48.732Z,46.10
2019-05-21T15:34:50.912Z,46.12
2019-05-21T15:39:55.292Z,46.95
2019-05-21T15:44:57.447Z,47.35
2019-05-21T15:49:59.642Z,47.49
2019-05-21T15:55:06.270Z,47.51
2019-05-21T16:00:05.803Z,47.61
2019-05-21T16:05:08.433Z,48.08
2019-05-21T16:10:34.921Z,47.01
2019-05-21T16:15:38.164Z,46.60
2019-05-21T16:20:42.457Z,46.48
2019-05-21T16:25:44.451Z,46.11
2019-05-21T16:30:46.674Z,47.95
2019-05-21T16:35:48.731Z,50.14
2019-05-21T16:40:50.901Z,51.60
2019-05-21T16:45:53.181Z,52.22
2019-05-21T16:50:55.230Z,52.64
2019-05-21T16:55:57.291Z,53.22
2019-05-21T17:01:00.035Z,54.06
2019-05-21T17:06:02.124Z,54.31
2019-05-21T17:11:04.231Z,54.83
2019-05-21T17:16:06.441Z,55.12
2019-05-21T17:21:10.209Z,55.65
2019-05-21T17:26:12.400Z,55.70
2019-05-21T17:31:14.503Z,55.64
2019-05-21T17:36:16.652Z,56.04
2019-05-21T17:41:18.787Z,55.95
2019-05-21T17:46:20.856Z,56.29
2019-05-21T17:51:26.053Z,56.73
2019-05-21T17:56:28.257Z,56.96
2019-05-21T18:01:49.613Z,57.13
2019-05-21T18:06:56.010Z,57.26
2019-05-21T18:11:58.072Z,57.51
2019-05-21T18:17:01.754Z,57.67
2019-05-21T18:22:09.485Z,57.76
2019-05-21T18:27:23.667Z,57.76
2019-05-21T18:32:30.044Z,58.00
2019-05-21T18:37:32.744Z,58.06
2019-05-21T18:42:35.322Z,58.16
2019-05-21T18:47:37.430Z,58.38
2019-05-21T18:52:39.569Z,58.31
2019-05-21T18:57:41.681Z,58.42
2019-05-21T19:02:49.814Z,58.63
2019-05-21T19:07:51.955Z,58.77
2019-05-21T19:12:56.610Z,58.90
2019-05-21T19:17:58.733Z,58.83
2019-05-21T19:23:20.230Z,58.97
2019-05-21T19:28:42.863Z,59.30
2019-05-21T19:33:55.583Z,59.17
2019-05-21T19:38:59.648Z,59.03
2019-05-21T19:44:01.959Z,59.03
2019-05-21T19:49:18.878Z,59.26
2019-05-21T19:54:21.012Z,59.54
2019-05-21T19:59:24.208Z,59.74
2019-05-21T20:04:26.922Z,59.68
2019-05-21T20:09:31.137Z,59.81
2019-05-21T20:14:33.195Z,60.12
2019-05-21T20:19:35.861Z,60.03
2019-05-21T20:24:39.096Z,60.26
2019-05-21T20:29:41.964Z,60.42
2019-05-21T20:34:44.113Z,60.20
2019-05-21T20:39:47.969Z,60.16
2019-05-21T20:44:55.613Z,59.95
2019-05-21T20:49:57.868Z,59.88
2019-05-21T20:55:03.178Z,59.83
2019-05-21T21:00:07.610Z,59.87
2019-05-21T21:05:11.952Z,59.75
2019-05-21T21:10:14.013Z,59.69
2019-05-21T21:15:16.692Z,59.68
2019-05-21T21:20:18.831Z,59.64
2019-05-21T21:25:22.175Z,59.55
2019-05-21T21:30:24.604Z,59.48
2019-05-21T21:35:30.353Z,59.66
2019-05-21T21:40:32.529Z,59.70
2019-05-21T21:45:34.727Z,59.82
2019-05-21T21:50:37.852Z,59.81
2019-05-21T21:55:40.192Z,59.95
2019-05-21T22:01:28.682Z,60.05
2019-05-21T22:06:33.566Z,60.09
2019-05-21T22:11:36.673Z,60.05
2019-05-21T22:16:38.792Z,60.25
2019-05-21T22:21:41.152Z,60.45
2019-05-21T22:26:43.195Z,60.72
2019-05-21T22:31:46.916Z,60.88
2019-05-21T22:36:49.107Z,61.07
2019-05-21T22:41:51.520Z,61.25
2019-05-21T22:46:54.102Z,61.55
2019-05-21T22:51:56.348Z,61.54
2019-05-21T22:56:58.431Z,61.17
2019-05-21T23:02:02.440Z,61.08
2019-05-21T23:07:05.202Z,61.17
2019-05-21T23:12:07.996Z,60.84
2019-05-21T23:17:10.582Z,60.68
2019-05-21T23:22:15.782Z,60.51
2019-05-21T23:27:18.866Z,60.57
2019-05-21T23:32:21.613Z,60.63
2019-05-21T23:37:24.800Z,60.78
2019-05-21T23:42:29.768Z,60.92
2019-05-21T23:47:31.047Z,61.31
2019-05-21T23:52:37.135Z,61.55
2019-05-21T23:57:39.737Z,61.68
